Time;durP1;ratioP1;P1;durP2;ratioP2;P2;SDS_P1;SDS_P2;PMS_P1;PMS_P2;Temp;Humidity;BMP_temperature;BMP_pressure;BME280_temperature;BME280_humidity;BME280_pressure;Samples;Min_cycle;Max_cycle;Signal;HPM_P1;HPM_P2
2023/08/01 09:36:50;;;;;;;3.47;1.37;;;;;;;17.24;100.00;97578.84;5026216;23;20252;-61
2023/08/01 09:39:18;;;;;;;3.47;1.27;;;;;;;17.36;100.00;97578.91;4960687;28;20229;-60
2023/08/01 09:41:44;;;;;;;2.20;1.40;;;;;;;17.30;100.00;97583.25;4964769;28;20242;-60
2023/08/01 09:44:11;;;;;;;2.33;1.00;;;;;;;17.50;100.00;97579.53;4963794;28;20240;-60
2023/08/01 09:46:38;;;;;;;1.67;1.03;;;;;;;17.72;100.00;97582.53;4961342;28;20233;-60
2023/08/01 09:49:09;;;;;;;3.43;1.20;;;;;;;18.23;95.90;97600.75;4955666;28;20233;-61
2023/08/01 09:51:49;;;;;;;2.03;1.10;;;;;;;17.93;100.00;97604.22;4952399;28;20251;-61
2023/08/01 09:57:06;;;;;;;1.73;0.90;;;;;;;18.15;100.00;97610.59;5679188;23;20241;-57
2023/08/01 09:59:34;;;;;;;3.23;1.33;;;;;;;18.52;100.00;97612.31;4963868;23;20231;-58
2023/08/01 10:02:02;;;;;;;2.30;1.23;;;;;;;19.14;97.97;97621.69;4961512;28;20225;-59
2023/08/01 10:04:55;;;;;;;2.10;1.27;;;;;;;18.91;95.51;97622.47;4964632;28;20289;-58
2023/08/01 10:07:26;;;;;;;2.97;1.50;;;;;;;19.54;93.72;97629.91;4958962;28;20248;-58
2023/08/01 10:09:56;;;;;;;3.33;1.00;;;;;;;19.67;91.09;97626.97;4917070;28;20328;-58
2023/08/01 10:12:27;;;;;;;2.17;1.00;;;;;;;19.39;91.51;97625.91;4944529;28;20578;-58
2023/08/01 10:14:56;;;;;;;1.77;1.00;;;;;;;19.50;90.56;97634.84;4919562;28;20220;-57
2023/08/01 10:17:28;;;;;;;2.57;1.07;;;;;;;19.64;89.12;97640.69;4956522;28;20279;-56
2023/08/01 10:19:57;;;;;;;2.00;1.10;;;;;;;19.06;90.38;97650.34;4955600;28;20246;-58
2023/08/01 10:22:26;;;;;;;3.00;1.00;;;;;;;19.20;92.81;97659.63;4960717;28;20236;-55
2023/08/01 10:24:57;;;;;;;2.37;0.90;;;;;;;18.93;92.38;97651.31;4965810;28;20226;-58
2023/08/01 10:27:23;;;;;;;2.93;1.07;;;;;;;19.21;94.08;97652.50;4954049;28;20587;-58
2023/08/01 10:30:00;;;;;;;2.17;0.77;;;;;;;19.46;90.80;97649.59;4978207;28;20324;-57
2023/08/01 10:32:34;;;;;;;1.00;0.80;;;;;;;19.13;90.01;97645.69;4960887;28;20230;-55
2023/08/01 10:35:01;;;;;;;1.20;0.70;;;;;;;19.90;82.33;97634.09;4962648;28;20227;-58
2023/08/01 10:37:40;;;;;;;2.37;1.00;;;;;;;19.72;84.02;97634.25;4960350;28;20360;-58
2023/08/01 10:40:08;;;;;;;1.60;0.70;;;;;;;19.94;83.06;97630.97;4962679;28;20589;-58
2023/08/01 10:42:42;;;;;;;1.67;0.93;;;;;;;19.72;80.94;97632.38;4961269;28;20243;-59
2023/08/01 10:45:21;;;;;;;2.47;1.10;;;;;;;19.54;80.06;97638.66;4962358;28;20231;-58
2023/08/01 10:47:47;;;;;;;1.63;1.00;;;;;;;19.61;81.03;97641.97;4960219;28;20740;-58
2023/08/01 10:50:15;;;;;;;2.20;0.93;;;;;;;19.29;81.07;97631.00;4961541;28;20240;-58
2023/08/01 10:52:44;;;;;;;2.50;1.00;;;;;;;19.47;83.19;97640.63;4962888;28;20243;-57
2023/08/01 10:55:11;;;;;;;2.67;1.00;;;;;;;19.38;81.94;97634.06;4963078;28;20286;-55
2023/08/01 10:57:48;;;;;;;2.60;0.90;;;;;;;19.37;79.59;97633.28;4940894;28;20243;-58
2023/08/01 11:00:19;;;;;;;2.50;1.10;;;;;;;19.34;78.98;97633.75;4959477;28;20236;-57
2023/08/01 11:02:50;;;;;;;4.23;1.20;;;;;;;19.32;79.89;97636.59;4961988;28;20291;-57
2023/08/01 11:05:16;;;;;;;4.70;1.43;;;;;;;18.74;79.51;97632.91;4962357;28;20245;-57
2023/08/01 11:07:54;;;;;;;3.97;1.30;;;;;;;18.73;81.96;97631.28;4922131;28;20241;-57
2023/08/01 11:10:21;;;;;;;2.00;1.07;;;;;;;18.92;77.24;97636.47;4958198;28;20226;-57
2023/08/01 11:12:48;;;;;;;1.57;0.93;;;;;;;19.20;77.95;97635.03;4931502;28;20264;-55
2023/08/01 11:15:16;;;;;;;1.87;0.93;;;;;;;20.02;74.33;97649.16;4970817;28;20240;-57
2023/08/01 11:17:44;;;;;;;1.60;1.20;;;;;;;20.51;70.67;97646.03;4961153;28;20247;-57
2023/08/01 11:20:12;;;;;;;5.03;1.43;;;;;;;20.46;71.55;97648.59;4962533;28;20219;-58
2023/08/01 11:22:56;;;;;;;1.70;1.20;;;;;;;20.78;66.49;97643.56;4960715;28;20248;-58
2023/08/01 11:25:33;;;;;;;2.10;1.00;;;;;;;20.52;68.38;97646.81;4960388;28;20240;-57
2023/08/01 11:28:03;;;;;;;2.30;1.10;;;;;;;20.69;68.57;97649.47;4962276;28;20247;-57
2023/08/01 11:30:33;;;;;;;1.50;1.07;;;;;;;20.98;68.42;97646.78;4959104;28;20714;-57
2023/08/01 11:33:01;;;;;;;2.97;1.10;;;;;;;20.96;68.31;97654.97;4963158;28;20224;-57
2023/08/01 11:35:28;;;;;;;1.87;1.27;;;;;;;21.56;65.90;97660.56;4960614;28;20271;-58
2023/08/01 11:37:58;;;;;;;1.73;0.93;;;;;;;21.04;68.58;97659.06;4962382;28;20226;-58
2023/08/01 11:40:25;;;;;;;3.70;1.40;;;;;;;21.00;67.18;97669.38;4958535;28;20881;-57
2023/08/01 11:42:59;;;;;;;2.23;1.00;;;;;;;21.19;65.94;97663.81;4961410;28;20235;-57
2023/08/01 11:45:25;;;;;;;3.20;1.00;;;;;;;20.85;67.55;97666.47;4957943;28;20263;-56
2023/08/01 11:47:52;;;;;;;1.90;1.23;;;;;;;20.96;64.26;97664.78;4960840;28;20310;-56
2023/08/01 11:50:23;;;;;;;3.07;1.03;;;;;;;20.73;66.77;97664.69;4957639;28;20228;-57
2023/08/01 11:52:50;;;;;;;4.90;1.20;;;;;;;20.55;66.58;97662.25;4960020;28;20237;-58
2023/08/01 11:55:23;;;;;;;2.93;1.30;;;;;;;20.29;67.51;97661.78;4957444;28;20224;-55
2023/08/01 11:57:54;;;;;;;2.00;1.00;;;;;;;20.46;68.40;97641.44;4961387;28;20240;-58
2023/08/01 12:00:25;;;;;;;1.60;1.00;;;;;;;20.27;68.26;97653.28;4958318;28;20220;-58
2023/08/01 12:02:52;;;;;;;1.80;1.25;;;;;;;20.09;69.66;97655.09;5639539;23;20558;-57
2023/08/01 12:05:23;;;;;;;1.57;1.30;;;;;;;20.31;70.72;97652.59;4951156;28;20467;-57
2023/08/01 12:07:49;;;;;;;3.33;1.40;;;;;;;19.98;71.05;97653.31;4957605;28;20240;-57
2023/08/01 12:10:16;;;;;;;2.93;1.57;;;;;;;19.81;71.24;97645.25;4956698;28;20688;-57
2023/08/01 12:12:47;;;;;;;3.60;1.40;;;;;;;19.89;72.39;97647.56;4959878;28;20250;-57
2023/08/01 12:15:14;;;;;;;2.40;1.27;;;;;;;19.66;72.03;97637.81;4954996;28;20260;-58
2023/08/01 12:17:41;;;;;;;2.60;1.40;;;;;;;19.70;73.24;97639.75;4954721;28;20314;-56
2023/08/01 12:20:09;;;;;;;2.50;1.30;;;;;;;20.00;72.99;97635.34;4957989;28;20227;-58
2023/08/01 12:22:42;;;;;;;2.33;1.33;;;;;;;20.49;71.77;97629.56;4955648;28;20252;-58
2023/08/01 12:25:09;;;;;;;1.87;1.30;;;;;;;21.38;69.74;97635.91;4952540;28;21045;-57
2023/08/01 12:27:36;;;;;;;2.23;1.33;;;;;;;21.97;67.10;97631.06;4959649;28;20227;-57
2023/08/01 12:30:05;;;;;;;1.83;1.30;;;;;;;22.07;64.84;97639.13;4958699;28;20239;-58
2023/08/01 12:32:32;;;;;;;1.93;1.20;;;;;;;22.58;62.85;97646.03;4953246;28;20253;-56
2023/08/01 12:34:59;;;;;;;2.03;1.40;;;;;;;23.14;60.64;97644.81;4957334;28;20241;-58
2023/08/01 12:37:25;;;;;;;2.33;1.50;;;;;;;22.64;61.05;97654.84;4956929;28;20225;-57
2023/08/01 12:39:56;;;;;;;2.63;1.30;;;;;;;22.55;59.19;97647.31;4960107;28;20243;-58
2023/08/01 12:42:23;;;;;;;3.73;1.40;;;;;;;22.49;61.21;97656.31;4954486;28;20296;-56
2023/08/01 12:44:56;;;;;;;3.77;1.40;;;;;;;22.03;58.54;97664.59;4958280;28;20245;-57
2023/08/01 12:47:26;;;;;;;1.90;1.30;;;;;;;21.72;58.62;97653.63;4952896;28;20242;-57
2023/08/01 12:49:56;;;;;;;2.20;1.30;;;;;;;21.46;59.02;97647.16;4957543;28;20284;-57
2023/08/01 12:52:24;;;;;;;2.00;1.40;;;;;;;22.02;59.36;97652.38;4954921;28;20227;-57
2023/08/01 12:54:56;;;;;;;2.40;1.13;;;;;;;22.15;55.11;97639.75;4957825;28;20238;-57
2023/08/01 12:57:23;;;;;;;2.47;1.10;;;;;;;22.08;55.34;97654.03;4952397;28;20239;-56
2023/08/01 12:59:56;;;;;;;4.27;1.30;;;;;;;22.42;57.37;97645.84;4953943;28;20242;-58
2023/08/01 13:02:24;;;;;;;1.73;1.40;;;;;;;22.97;53.99;97655.63;4956015;28;20692;-57
2023/08/01 13:04:56;;;;;;;1.83;1.40;;;;;;;22.52;54.93;97655.00;4957230;28;20590;-57
2023/08/01 13:07:22;;;;;;;2.93;1.23;;;;;;;22.74;54.19;97649.59;4951424;28;20234;-58
2023/08/01 13:10:14;;;;;;;2.10;1.50;;;;;;;22.92;54.00;97642.28;4955633;28;20634;-58
2023/08/01 13:12:40;;;;;;;3.37;1.13;;;;;;;22.47;54.64;97639.78;4955398;28;20243;-57
2023/08/01 13:15:08;;;;;;;3.90;1.27;;;;;;;21.67;56.03;97646.41;4958153;28;20277;-59
2023/08/01 13:17:36;;;;;;;1.60;1.30;;;;;;;21.78;55.63;97651.84;4953239;28;20243;-58
2023/08/01 13:20:03;;;;;;;3.37;1.40;;;;;;;21.83;55.39;97642.06;4955290;28;20226;-57
2023/08/01 13:22:30;;;;;;;4.03;1.30;;;;;;;21.93;57.22;97643.22;4952472;28;20229;-57
2023/08/01 13:24:56;;;;;;;2.80;1.40;;;;;;;22.39;55.75;97649.00;4957318;28;20244;-58
2023/08/01 13:27:23;;;;;;;5.27;1.30;;;;;;;21.34;56.70;97652.59;4953263;28;20227;-59
2023/08/01 13:29:56;;;;;;;1.93;0.97;;;;;;;22.26;55.97;97646.75;4957119;28;20238;-58
2023/08/01 13:32:22;;;;;;;2.57;1.40;;;;;;;22.87;52.41;97659.00;4954011;28;20226;-56
2023/08/01 13:34:54;;;;;;;2.23;1.20;;;;;;;22.99;53.51;97653.50;4957941;28;20241;-58
2023/08/01 13:37:21;;;;;;;1.90;1.25;;;;;;;23.61;50.43;97653.84;4955339;28;20943;-58
2023/08/01 13:43:28;;;;;;;2.03;1.10;;;;;;;23.40;48.26;97650.31;4949027;28;20316;-58
2023/08/01 13:45:55;;;;;;;1.97;1.20;;;;;;;23.41;49.27;97652.69;4957591;28;20236;-59
2023/08/01 13:48:22;;;;;;;2.47;1.30;;;;;;;23.52;48.99;97642.91;4955683;28;20375;-58
2023/08/01 13:50:50;;;;;;;2.17;1.20;;;;;;;23.40;50.43;97648.44;4958018;28;20704;-57
2023/08/01 13:53:17;;;;;;;3.83;1.20;;;;;;;23.13;51.71;97646.69;4953766;28;20229;-58
2023/08/01 13:55:43;;;;;;;2.93;1.30;;;;;;;23.82;50.77;97660.09;4958686;28;20277;-58
2023/08/01 13:58:10;;;;;;;2.47;1.20;;;;;;;23.71;49.96;97656.56;4956857;28;20228;-57
2023/08/01 14:00:37;;;;;;;2.60;1.27;;;;;;;23.14;49.94;97658.94;4953820;28;20235;-58
2023/08/01 14:03:04;;;;;;;2.03;0.97;;;;;;;22.89;52.46;97658.75;4957062;28;20237;-58
2023/08/01 14:05:30;;;;;;;2.50;1.17;;;;;;;23.12;51.13;97645.06;4954517;28;20243;-59
2023/08/01 14:07:59;;;;;;;3.57;1.10;;;;;;;23.06;54.04;97662.06;4957169;28;20594;-58
2023/08/01 14:10:26;;;;;;;1.70;1.20;;;;;;;23.02;51.86;97653.00;4954792;28;20217;-58
2023/08/01 14:12:53;;;;;;;1.60;0.80;;;;;;;23.17;49.39;97678.09;4956660;28;20235;-57
2023/08/01 14:15:19;;;;;;;3.23;1.00;;;;;;;22.47;51.58;97653.09;4954134;28;20237;-57
2023/08/01 14:17:46;;;;;;;2.47;1.13;;;;;;;22.09;52.41;97654.84;4954496;28;20239;-58
2023/08/01 14:20:13;;;;;;;4.90;1.00;;;;;;;21.68;53.49;97663.16;4958537;28;20248;-58
2023/08/01 14:22:42;;;;;;;1.63;1.07;;;;;;;22.14;53.53;97668.19;4956910;28;20605;-59
2023/08/01 14:25:10;;;;;;;1.10;0.80;;;;;;;22.18;51.90;97677.25;4966806;23;20242;-57
2023/08/01 14:27:37;;;;;;;2.60;1.30;;;;;;;21.95;51.36;97665.84;4959421;28;20241;-61
2023/08/01 14:30:05;;;;;;;2.60;1.00;;;;;;;22.51;52.32;97683.44;4962106;28;20223;-60
2023/08/01 14:32:32;;;;;;;4.40;0.90;;;;;;;22.07;52.69;97684.31;4959688;28;20226;-60
2023/08/01 14:34:58;;;;;;;1.80;1.00;;;;;;;22.48;51.19;97681.28;4963303;28;20709;-60
2023/08/01 14:37:25;;;;;;;2.03;1.13;;;;;;;22.38;51.79;97674.00;4959998;28;20226;-60
2023/08/01 14:39:56;;;;;;;3.47;1.10;;;;;;;22.63;51.99;97659.38;4963230;28;20256;-60
2023/08/01 14:42:24;;;;;;;1.87;1.10;;;;;;;22.65;51.91;97670.56;4959643;28;20227;-60
2023/08/01 14:44:57;;;;;;;2.80;1.30;;;;;;;22.85;51.08;97669.91;4962689;28;20221;-60
2023/08/01 14:47:23;;;;;;;1.93;1.10;;;;;;;22.78;51.77;97665.88;4959682;28;20273;-60
2023/08/01 14:49:56;;;;;;;2.77;1.10;;;;;;;22.78;52.46;97671.19;4962740;28;20254;-60
2023/08/01 14:52:23;;;;;;;2.83;1.17;;;;;;;22.88;52.42;97678.44;4959857;28;20228;-59
2023/08/01 14:55:14;;;;;;;1.83;1.00;;;;;;;23.28;50.26;97669.16;4959852;28;20234;-60
2023/08/01 14:57:42;;;;;;;1.80;0.90;;;;;;;22.58;51.50;97677.94;4961162;28;20239;-59
2023/08/01 15:00:10;;;;;;;2.83;1.30;;;;;;;22.62;52.00;97694.19;4962645;28;20223;-60
2023/08/01 15:02:36;;;;;;;5.17;1.23;;;;;;;22.56;51.32;97690.69;4958662;28;20242;-59
2023/08/01 15:05:03;;;;;;;4.73;1.00;;;;;;;22.47;50.81;97703.59;4963178;28;20722;-60
2023/08/01 15:07:30;;;;;;;2.43;1.13;;;;;;;22.23;49.93;97714.53;4959412;28;20586;-60
2023/08/01 15:09:56;;;;;;;1.53;0.93;;;;;;;22.80;49.34;97699.13;4963872;28;20244;-59
2023/08/01 15:12:24;;;;;;;1.10;0.80;;;;;;;22.72;50.52;97680.19;4960051;28;21803;-60
2023/08/01 15:14:57;;;;;;;3.87;1.10;;;;;;;22.54;49.05;97703.44;4963282;28;20234;-60
2023/08/01 15:17:24;;;;;;;1.73;1.20;;;;;;;22.35;48.24;97713.56;4959181;28;20231;-60
2023/08/01 15:19:56;;;;;;;1.57;0.83;;;;;;;22.08;50.87;97717.00;4962425;28;20232;-60
2023/08/01 15:22:22;;;;;;;3.33;0.90;;;;;;;22.15;49.86;97714.97;4957866;28;20314;-60
2023/08/01 15:25:14;;;;;;;2.47;0.90;;;;;;;22.39;50.70;97715.47;4960017;28;20238;-60
2023/08/01 15:27:41;;;;;;;1.93;1.20;;;;;;;21.89;50.45;97733.25;4962767;28;20226;-59
2023/08/01 15:30:10;;;;;;;4.20;1.63;;;;;;;21.57;52.15;97699.34;4960257;28;20818;-59
2023/08/01 15:32:36;;;;;;;3.17;1.23;;;;;;;21.50;53.01;97704.84;4959582;28;20245;-60
2023/08/01 15:35:03;;;;;;;4.73;1.07;;;;;;;22.36;49.76;97704.53;4962668;28;20865;-60
2023/08/01 15:40:12;;;;;;;2.27;1.10;;;;;;;22.41;50.91;97707.25;5478369;23;20235;-60
2023/08/01 15:42:39;;;;;;;2.97;1.00;;;;;;;22.45;50.06;97719.00;4918372;29;20241;-60
2023/08/01 15:45:06;;;;;;;2.73;1.10;;;;;;;22.20;49.81;97696.41;4926110;28;20747;-58
2023/08/01 15:47:34;;;;;;;2.83;1.00;;;;;;;22.42;51.00;97700.88;4926598;28;20721;-57
2023/08/01 15:50:01;;;;;;;4.00;1.00;;;;;;;22.59;50.22;97710.63;4918431;28;20238;-58
2023/08/01 15:52:27;;;;;;;4.07;1.00;;;;;;;22.64;48.30;97710.69;4909619;29;20415;-57
2023/08/01 15:54:56;;;;;;;5.07;1.10;;;;;;;22.58;48.16;97706.38;4907265;28;20328;-58
2023/08/01 15:57:22;;;;;;;4.53;1.27;;;;;;;23.04;46.85;97712.09;4907325;29;20243;-57
2023/08/01 15:59:53;;;;;;;3.20;1.20;;;;;;;22.92;48.48;97708.78;4903615;29;20304;-58
2023/08/01 16:02:19;;;;;;;2.03;1.20;;;;;;;22.64;48.41;97703.53;4905027;29;20228;-57
2023/08/01 16:04:47;;;;;;;2.00;1.00;;;;;;;22.64;48.21;97692.06;4908136;29;20240;-57
2023/08/01 16:07:14;;;;;;;2.10;1.10;;;;;;;23.16;47.49;97695.94;4912542;29;20722;-58
2023/08/01 16:09:40;;;;;;;2.27;1.13;;;;;;;23.19;48.27;97691.97;4905613;28;20241;-58
2023/08/01 16:12:08;;;;;;;2.40;1.20;;;;;;;23.21;47.42;97690.63;4911000;29;20225;-56
2023/08/01 16:14:35;;;;;;;2.33;0.90;;;;;;;23.49;46.69;97690.56;4905580;28;20236;-58
2023/08/01 16:17:02;;;;;;;2.30;1.23;;;;;;;22.91;48.16;97696.56;4900030;29;20230;-58
2023/08/01 16:19:28;;;;;;;1.97;1.20;;;;;;;23.23;47.96;97698.41;4906387;28;20228;-60
2023/08/01 16:21:56;;;;;;;1.67;1.10;;;;;;;23.35;47.39;97704.31;4906083;29;20238;-59
2023/08/01 16:24:23;;;;;;;3.07;1.30;;;;;;;23.34;47.66;97710.72;4904513;29;20220;-59
2023/08/01 16:26:49;;;;;;;2.70;1.03;;;;;;;23.53;47.01;97710.28;4911774;29;20248;-58
2023/08/01 16:29:16;;;;;;;3.30;1.20;;;;;;;23.24;45.05;97708.00;4902289;29;20214;-57
2023/08/01 16:31:42;;;;;;;2.60;0.90;;;;;;;23.44;44.75;97717.97;4901939;29;20240;-59
2023/08/01 16:34:09;;;;;;;5.33;1.30;;;;;;;22.95;45.84;97719.72;4926483;29;20234;-59
2023/08/01 16:36:36;;;;;;;1.47;1.00;;;;;;;23.29;45.32;97705.38;4908886;29;20721;-59
2023/08/01 16:39:05;;;;;;;3.67;1.10;;;;;;;23.26;45.62;97711.22;4922163;29;21181;-59
2023/08/01 16:41:32;;;;;;;2.03;1.10;;;;;;;23.32;45.76;97712.81;4905195;29;20723;-59
2023/08/01 16:43:58;;;;;;;2.13;1.10;;;;;;;23.50;45.18;97714.28;4905899;29;20218;-58
2023/08/01 16:46:25;;;;;;;2.73;1.00;;;;;;;24.72;42.10;97722.19;4902854;29;20228;-59
2023/08/01 16:48:51;;;;;;;1.87;1.10;;;;;;;26.38;38.41;97733.34;4909696;29;20233;-58
2023/08/01 16:51:19;;;;;;;2.73;0.90;;;;;;;27.96;34.99;97741.38;4904554;29;20318;-59
2023/08/01 16:53:46;;;;;;;2.00;0.93;;;;;;;27.69;34.62;97739.25;4903295;29;20244;-59
2023/08/01 16:56:14;;;;;;;4.07;1.70;;;;;;;27.78;35.05;97761.66;4906434;29;20227;-58
2023/08/01 16:58:40;;;;;;;7.17;1.23;;;;;;;29.45;32.56;97750.22;4904205;29;20831;-59
2023/08/01 17:01:08;;;;;;;2.60;1.00;;;;;;;31.29;29.54;97766.50;4903005;29;20659;-59
2023/08/01 17:03:37;;;;;;;2.43;1.10;;;;;;;29.03;31.81;97755.47;4901043;29;20268;-59
2023/08/01 17:06:03;;;;;;;2.27;1.13;;;;;;;28.61;32.65;97751.78;4905396;29;20708;-59
2023/08/01 17:08:30;;;;;;;2.37;1.00;;;;;;;28.43;32.71;97741.56;4906558;28;20226;-58
2023/08/01 17:10:57;;;;;;;1.10;0.80;;;;;;;31.33;28.20;97762.09;4908323;29;20618;-58
2023/08/01 17:13:25;;;;;;;3.65;1.40;;;;;;;29.60;30.57;97755.31;4904858;29;20230;-60
2023/08/01 17:15:51;;;;;;;3.00;0.87;;;;;;;31.85;28.62;97763.44;4908291;29;20248;-58
2023/08/01 17:18:20;;;;;;;3.00;1.20;;;;;;;31.03;28.72;97759.84;4904756;29;20228;-58
2023/08/01 17:20:47;;;;;;;2.88;1.02;;;;;;;28.16;32.31;97754.81;4905976;29;20262;-58
2023/08/01 17:23:13;;;;;;;3.03;1.10;;;;;;;29.36;31.28;97755.44;4906032;29;20222;-58
2023/08/01 17:25:40;;;;;;;4.40;1.10;;;;;;;29.49;30.61;97751.22;4903715;29;20249;-58
2023/08/01 17:28:06;;;;;;;5.13;1.40;;;;;;;27.68;34.24;97751.84;4908148;29;20605;-60
2023/08/01 17:30:37;;;;;;;2.63;1.20;;;;;;;25.87;37.40;97754.91;4906773;29;20242;-59
2023/08/01 17:33:04;;;;;;;3.10;1.23;;;;;;;27.59;34.66;97768.84;4906559;29;20229;-58
2023/08/01 17:35:31;;;;;;;3.27;1.10;;;;;;;27.50;34.33;97766.00;4904294;29;20922;-58
2023/08/01 17:37:57;;;;;;;3.93;1.13;;;;;;;27.24;35.41;97768.88;4909064;29;20236;-58
2023/08/01 17:40:24;;;;;;;1.93;1.23;;;;;;;25.76;37.22;97765.63;4904144;29;20260;-57
2023/08/01 17:42:52;;;;;;;3.57;1.10;;;;;;;25.46;39.15;97761.97;4903292;29;20236;-58
2023/08/01 17:45:19;;;;;;;4.27;1.30;;;;;;;24.88;39.42;97762.25;4901200;29;20216;-59
2023/08/01 17:47:47;;;;;;;2.27;1.03;;;;;;;23.47;42.02;97748.59;4908061;29;20235;-56
2023/08/01 17:50:14;;;;;;;2.90;1.00;;;;;;;24.14;41.71;97756.97;4906914;29;20309;-58
2023/08/01 17:52:40;;;;;;;2.33;1.03;;;;;;;25.85;37.96;97762.41;4902407;29;20229;-58
2023/08/01 17:55:07;;;;;;;2.00;1.10;;;;;;;27.19;35.46;97780.44;4910707;29;20223;-56
2023/08/01 17:57:34;;;;;;;3.23;1.30;;;;;;;26.18;36.62;97778.91;4903120;29;20747;-59
2023/08/01 18:00:00;;;;;;;2.00;1.10;;;;;;;27.19;35.03;97780.44;4906580;29;20227;-58
2023/08/01 18:02:31;;;;;;;3.40;1.27;;;;;;;27.47;35.06;97771.88;4902889;28;20229;-58
2023/08/01 18:05:00;;;;;;;4.93;1.23;;;;;;;26.88;35.72;97779.88;4907140;29;20236;-58
2023/08/01 18:07:30;;;;;;;3.60;1.10;;;;;;;25.06;39.64;97790.28;4909342;29;20235;-57
2023/08/01 18:09:57;;;;;;;2.43;0.90;;;;;;;24.49;40.86;97779.47;4908633;29;20591;-58
2023/08/01 18:12:29;;;;;;;3.73;1.30;;;;;;;23.21;44.66;97783.03;4908733;28;20239;-58
2023/08/01 18:14:56;;;;;;;6.90;1.20;;;;;;;23.52;44.13;97796.56;4910830;29;20321;-58
2023/08/01 18:17:29;;;;;;;6.13;2.00;;;;;;;24.74;41.98;97793.97;4906180;29;20223;-58
2023/08/01 18:19:55;;;;;;;3.53;1.10;;;;;;;26.52;38.14;97808.44;4907637;29;20746;-58
2023/08/01 18:22:29;;;;;;;4.07;1.20;;;;;;;25.91;38.43;97815.59;4906847;29;20244;-58
2023/08/01 18:24:55;;;;;;;1.53;1.00;;;;;;;25.07;40.70;97813.25;4906736;29;20218;-58
2023/08/01 18:27:47;;;;;;;1.80;1.20;;;;;;;23.96;42.96;97814.97;4908823;28;20300;-59
2023/08/01 18:30:13;;;;;;;3.23;1.10;;;;;;;23.02;45.87;97820.66;4912387;29;20257;-60
2023/08/01 18:32:40;;;;;;;2.60;1.20;;;;;;;22.81;47.30;97830.28;4909661;29;20235;-60
2023/08/01 18:35:07;;;;;;;3.10;1.30;;;;;;;22.62;47.23;97827.16;4910367;29;20234;-59
2023/08/01 18:37:35;;;;;;;2.20;1.30;;;;;;;21.85;49.53;97830.44;4909937;29;20226;-59
2023/08/01 18:40:03;;;;;;;2.43;1.33;;;;;;;21.27;50.71;97827.13;4908369;29;20237;-59
2023/08/01 18:42:29;;;;;;;2.43;1.07;;;;;;;20.88;52.31;97833.09;4907620;29;20235;-59
2023/08/01 18:44:56;;;;;;;4.00;1.70;;;;;;;20.46;53.18;97821.69;4911346;29;20297;-58
2023/08/01 18:47:29;;;;;;;3.80;1.30;;;;;;;20.26;54.17;97830.03;4908628;28;20221;-59
2023/08/01 18:49:55;;;;;;;3.83;1.50;;;;;;;20.20;55.62;97841.56;4907959;29;20235;-60
2023/08/01 18:52:49;;;;;;;2.63;1.30;;;;;;;19.98;54.88;97834.22;4908887;29;20246;-62
2023/08/01 18:55:16;;;;;;;4.77;1.50;;;;;;;19.85;56.15;97832.59;4909184;29;20732;-58
2023/08/01 18:57:43;;;;;;;4.70;1.60;;;;;;;19.76;55.61;97847.19;4909568;29;20599;-57
2023/08/01 19:00:12;;;;;;;3.97;1.40;;;;;;;19.67;56.52;97846.72;4907647;29;20253;-57
2023/08/01 19:02:38;;;;;;;3.30;1.60;;;;;;;19.56;56.86;97844.88;4905792;29;20420;-54
2023/08/01 19:05:06;;;;;;;5.17;1.63;;;;;;;19.47;57.08;97844.41;4908825;29;20595;-58
2023/08/01 19:07:32;;;;;;;2.87;1.40;;;;;;;19.44;57.59;97847.50;4906368;28;20976;-58
2023/08/01 19:10:00;;;;;;;3.67;1.30;;;;;;;19.38;58.62;97851.06;4910094;29;20244;-55
2023/08/01 19:12:29;;;;;;;3.60;1.73;;;;;;;19.27;57.77;97842.88;4909635;29;20226;-56
2023/08/01 19:14:55;;;;;;;3.30;1.20;;;;;;;19.23;58.00;97844.34;4907786;29;20230;-57
2023/08/01 19:17:47;;;;;;;3.03;1.40;;;;;;;19.22;59.73;97845.38;4907160;28;20917;-54
2023/08/01 19:20:13;;;;;;;4.87;1.73;;;;;;;19.13;58.67;97855.50;4908724;29;20229;-57
2023/08/01 19:22:40;;;;;;;4.97;1.47;;;;;;;19.10;58.60;97855.13;4908532;28;20243;-56
2023/08/01 19:25:09;;;;;;;5.13;1.70;;;;;;;19.05;60.14;97866.38;4910299;29;20735;-57
2023/08/01 19:27:35;;;;;;;4.23;1.70;;;;;;;18.95;59.43;97868.72;4905138;29;20283;-57
2023/08/01 19:30:03;;;;;;;4.57;1.73;;;;;;;18.89;59.55;97881.03;4910934;29;20241;-56
2023/08/01 19:32:30;;;;;;;5.70;1.77;;;;;;;18.88;60.43;97874.91;4908328;29;20222;-57
2023/08/01 19:34:58;;;;;;;4.50;1.70;;;;;;;18.77;60.65;97866.94;4910962;29;20259;-58
2023/08/01 19:37:29;;;;;;;5.75;1.90;;;;;;;18.65;61.55;97869.50;4908520;28;20464;-57
2023/08/01 19:39:55;;;;;;;3.53;1.63;;;;;;;18.67;61.03;97878.84;4910937;29;20304;-55
2023/08/01 19:42:27;;;;;;;4.50;1.40;;;;;;;18.73;60.81;97883.25;4905112;28;20591;-54
2023/08/01 19:44:54;;;;;;;4.10;1.60;;;;;;;18.78;60.98;97885.19;4910583;29;20238;-56
2023/08/01 19:47:21;;;;;;;3.57;1.57;;;;;;;18.81;60.50;97890.03;4907780;29;20318;-57
2023/08/01 19:49:48;;;;;;;3.00;1.80;;;;;;;18.80;60.19;97892.94;4907697;29;20329;-57
2023/08/01 19:52:14;;;;;;;5.27;1.60;;;;;;;18.82;61.13;97898.81;4906463;29;20614;-57
2023/08/01 19:54:41;;;;;;;5.13;1.80;;;;;;;18.76;61.04;97903.13;4907977;29;20238;-58
2023/08/01 19:57:07;;;;;;;3.80;1.80;;;;;;;18.68;61.25;97900.78;4908427;29;20224;-57
2023/08/01 19:59:35;;;;;;;4.77;1.47;;;;;;;18.63;61.99;97903.28;4907898;29;20354;-56
2023/08/01 20:02:02;;;;;;;4.67;1.90;;;;;;;18.44;62.99;97906.72;4909183;29;20248;-57
2023/08/01 20:04:29;;;;;;;3.00;1.50;;;;;;;18.29;62.99;97898.34;4906853;29;20236;-56
2023/08/01 20:06:55;;;;;;;3.37;1.40;;;;;;;18.21;63.92;97899.47;4910085;29;20605;-58
2023/08/01 20:09:22;;;;;;;2.90;1.40;;;;;;;18.24;62.48;97896.38;4904387;29;20585;-58
2023/08/01 20:11:49;;;;;;;4.37;1.47;;;;;;;18.27;62.48;97903.88;4908174;29;20231;-58
2023/08/01 20:14:15;;;;;;;2.70;1.70;;;;;;;18.33;61.84;97909.31;4908878;29;20234;-55
2023/08/01 20:16:43;;;;;;;2.40;1.40;;;;;;;18.33;62.90;97904.03;4909531;29;20249;-58
2023/08/01 20:19:10;;;;;;;5.80;1.80;;;;;;;18.24;62.56;97895.56;4912322;29;20221;-57
2023/08/01 20:21:45;;;;;;;5.90;1.90;;;;;;;18.14;65.70;97907.44;4906292;29;20246;-58
2023/08/01 20:24:11;;;;;;;2.93;1.20;;;;;;;18.21;64.01;97902.09;4909368;29;20234;-57
2023/08/01 20:26:38;;;;;;;2.83;1.30;;;;;;;18.15;62.94;97909.03;4905425;29;20236;-57
2023/08/01 20:29:05;;;;;;;3.07;1.20;;;;;;;18.13;62.28;97900.53;4907519;29;20237;-58
2023/08/01 20:31:32;;;;;;;3.10;1.30;;;;;;;18.15;62.76;97905.63;4906200;29;20248;-60
2023/08/01 20:34:00;;;;;;;4.43;1.43;;;;;;;18.11;63.31;97907.06;4908831;29;20320;-62
2023/08/01 20:36:27;;;;;;;4.40;1.40;;;;;;;17.90;64.92;97898.47;4909051;28;20809;-62
2023/08/01 20:38:54;;;;;;;3.17;1.40;;;;;;;17.80;65.09;97920.09;4909096;29;20244;-63
2023/08/01 20:41:20;;;;;;;5.20;1.70;;;;;;;17.69;66.83;97915.50;4905313;29;20248;-60
2023/08/01 20:43:47;;;;;;;3.33;1.37;;;;;;;17.62;66.39;97906.84;4920229;29;20235;-60
2023/08/01 20:46:13;;;;;;;2.97;1.10;;;;;;;17.55;66.55;97915.59;4910118;29;20243;-61
2023/08/01 20:48:40;;;;;;;2.67;1.60;;;;;;;17.62;67.15;97904.19;4903189;29;20243;-61
2023/08/01 20:51:08;;;;;;;2.10;1.30;;;;;;;17.61;67.77;97921.06;4923970;28;20249;-61
2023/08/01 20:53:35;;;;;;;5.17;1.43;;;;;;;17.71;65.60;97902.91;4906765;29;20261;-61
2023/08/01 20:56:01;;;;;;;5.70;1.43;;;;;;;17.75;65.18;97904.09;4908243;29;20235;-62
2023/08/01 20:58:28;;;;;;;5.23;1.90;;;;;;;17.71;66.50;97902.91;4904437;29;20224;-62
2023/08/01 21:00:59;;;;;;;3.87;1.70;;;;;;;17.72;65.89;97893.97;4908924;29;20667;-62
2023/08/01 21:03:25;;;;;;;3.23;1.30;;;;;;;17.74;66.35;97897.19;4904893;29;20316;-62
2023/08/01 21:05:52;;;;;;;4.67;1.67;;;;;;;17.72;66.96;97899.25;4906890;29;20244;-62
2023/08/01 21:08:20;;;;;;;4.40;1.80;;;;;;;17.75;66.39;97896.19;4903112;29;20216;-62
2023/08/01 21:10:47;;;;;;;5.73;1.50;;;;;;;17.71;67.04;97898.44;4910607;29;20254;-62
2023/08/01 21:13:13;;;;;;;3.87;1.90;;;;;;;17.71;67.12;97895.78;4906032;29;20225;-62
2023/08/01 21:15:40;;;;;;;3.17;1.30;;;;;;;17.59;69.24;97902.78;4908920;29;20237;-62
2023/08/01 21:18:06;;;;;;;4.13;1.60;;;;;;;17.53;69.04;97893.06;4906689;29;20298;-62
2023/08/01 21:20:33;;;;;;;6.10;1.57;;;;;;;17.48;69.27;97906.13;4905316;29;20819;-63
2023/08/01 21:22:59;;;;;;;4.23;1.83;;;;;;;17.54;69.71;97907.88;4909384;29;20598;-61
2023/08/01 21:25:27;;;;;;;3.83;1.30;;;;;;;17.58;68.93;97906.44;4905272;29;20242;-61